createdAt,value
2023-01-30T00:46:12.683Z,15.51
2023-01-30T00:48:40.615Z,15.51
2023-01-30T00:51:08.537Z,15.49
2023-01-30T00:53:36.366Z,15.49
2023-01-30T00:56:04.014Z,15.45
2023-01-30T00:58:31.708Z,15.44
2023-01-30T01:48:01.244Z,15.44
2023-01-30T01:50:30.048Z,15.43
2023-01-30T01:52:57.827Z,15.44
2023-01-30T01:55:25.659Z,15.44
2023-01-30T01:57:54.115Z,15.45
2023-01-30T02:47:22.615Z,15.40
2023-01-30T02:49:51.514Z,15.39
2023-01-30T02:52:19.173Z,15.40
2023-01-30T02:54:46.881Z,15.40
2023-01-30T02:57:21.067Z,15.40
2023-01-30T02:59:52.740Z,15.40
2023-01-30T03:46:21.973Z,15.35
2023-01-30T03:48:49.977Z,15.39
2023-01-30T03:51:17.583Z,15.40
2023-01-30T03:53:45.296Z,15.40
2023-01-30T03:56:13.689Z,15.37
2023-01-30T03:58:41.750Z,15.34
2023-01-30T04:45:18.089Z,15.31
2023-01-30T04:47:46.342Z,15.33
2023-01-30T04:50:14.012Z,15.33
2023-01-30T04:52:42.857Z,15.33
2023-01-30T04:55:12.214Z,15.34
2023-01-30T04:57:39.848Z,15.33
2023-01-30T05:47:10.790Z,15.43
2023-01-30T05:49:38.389Z,15.44
2023-01-30T05:52:06.271Z,15.44
2023-01-30T05:54:33.877Z,15.45
2023-01-30T05:57:01.464Z,15.44
2023-01-30T05:59:29.061Z,15.44
2023-01-30T06:01:56.686Z,15.42
2023-01-30T06:04:25.770Z,15.41
2023-01-30T06:06:53.353Z,15.42
2023-01-30T06:09:20.972Z,15.40
2023-01-30T06:11:48.546Z,15.42
2023-01-30T06:14:16.146Z,15.41
2023-01-30T06:16:43.697Z,15.42
2023-01-30T06:19:11.592Z,15.43
2023-01-30T06:21:40.781Z,15.45
2023-01-30T06:24:08.714Z,15.43
2023-01-30T06:26:36.362Z,15.42
2023-01-30T06:29:03.903Z,15.44
2023-01-30T06:31:31.614Z,15.44
2023-01-30T06:33:59.227Z,15.44
2023-01-30T06:36:26.819Z,15.45
2023-01-30T06:38:55.824Z,15.46
2023-01-30T06:41:23.565Z,15.47
2023-01-30T06:43:51.132Z,15.48
2023-01-30T06:46:18.753Z,15.51
2023-01-30T06:48:46.479Z,15.51
2023-01-30T06:51:14.169Z,15.48
2023-01-30T06:53:41.971Z,15.49
2023-01-30T06:56:11.095Z,15.50
2023-01-30T06:58:38.782Z,15.50
2023-01-30T07:01:06.511Z,15.51
2023-01-30T07:03:34.075Z,15.50
2023-01-30T07:06:01.689Z,15.49
2023-01-30T07:08:29.273Z,15.50
2023-01-30T07:10:57.114Z,15.51
2023-01-30T07:13:26.221Z,15.54
2023-01-30T07:15:53.835Z,15.55
2023-01-30T07:18:21.393Z,15.55
2023-01-30T07:20:49.043Z,15.54
2023-01-30T07:23:16.664Z,15.54
2023-01-30T07:25:44.317Z,15.53
2023-01-30T07:28:12.115Z,15.53
2023-01-30T07:30:41.400Z,15.55
2023-01-30T07:33:09.080Z,15.54
2023-01-30T07:35:37.011Z,15.54
2023-01-30T07:38:04.608Z,15.56
2023-01-30T07:40:32.205Z,15.55
2023-01-30T07:43:00.308Z,15.54
2023-01-30T07:45:28.803Z,15.55
2023-01-30T07:47:58.096Z,15.57
2023-01-30T07:50:25.729Z,15.57
2023-01-30T07:52:53.318Z,15.59
2023-01-30T07:55:21.206Z,15.62
2023-01-30T07:57:48.949Z,15.65
2023-01-30T08:00:17.132Z,15.67
2023-01-30T08:02:44.939Z,15.70
2023-01-30T08:05:13.980Z,15.69
2023-01-30T08:07:41.643Z,15.72
2023-01-30T08:10:11.983Z,15.75
2023-01-30T08:12:40.512Z,15.75
2023-01-30T08:15:08.562Z,15.74
2023-01-30T08:17:36.211Z,15.75
2023-01-30T08:20:04.650Z,15.76
2023-01-30T08:22:33.731Z,15.76
2023-01-30T08:25:01.467Z,15.78
2023-01-30T08:27:29.118Z,15.79
2023-01-30T08:29:57.258Z,15.79
2023-01-30T08:32:24.902Z,15.77
2023-01-30T08:34:52.490Z,15.79
2023-01-30T08:37:20.417Z,15.79
2023-01-30T08:39:49.394Z,15.81
2023-01-30T08:42:16.977Z,15.84
2023-01-30T08:44:44.738Z,15.85
2023-01-30T08:47:12.312Z,15.86
2023-01-30T08:49:39.930Z,15.86
2023-01-30T08:52:07.622Z,15.87
2023-01-30T08:54:35.277Z,15.87
2023-01-30T08:57:04.271Z,15.86
2023-01-30T08:59:31.860Z,15.85
2023-01-30T09:01:59.498Z,15.85
2023-01-30T09:04:27.204Z,15.87
2023-01-30T09:06:54.908Z,15.88
2023-01-30T09:09:22.501Z,15.89
2023-01-30T09:11:50.109Z,15.87
2023-01-30T09:14:19.876Z,15.90
2023-01-30T09:16:48.236Z,15.90
2023-01-30T09:19:16.068Z,15.85
2023-01-30T09:21:43.696Z,15.93
2023-01-30T09:24:11.467Z,15.94
2023-01-30T09:26:40.421Z,15.95
2023-01-30T09:29:08.288Z,15.95
2023-01-30T09:31:37.365Z,15.98
2023-01-30T09:34:05.040Z,15.97
2023-01-30T09:36:32.756Z,15.98
2023-01-30T09:39:00.469Z,15.99
2023-01-30T09:41:31.712Z,16.00
2023-01-30T09:44:03.058Z,16.00
2023-01-30T09:46:32.602Z,16.01
2023-01-30T09:49:02.972Z,16.01
2023-01-30T09:51:40.176Z,16.02
2023-01-30T09:54:16.311Z,16.02
2023-01-30T09:56:43.957Z,16.04
2023-01-30T09:59:14.440Z,16.03
2023-01-30T10:01:43.662Z,16.04
2023-01-30T10:04:14.745Z,16.04
2023-01-30T10:06:45.740Z,16.04
2023-01-30T10:09:15.123Z,16.04
2023-01-30T10:11:47.783Z,16.04
2023-01-30T10:14:18.240Z,16.05
2023-01-30T10:16:46.361Z,16.05
2023-01-30T10:19:35.864Z,16.07
2023-01-30T10:22:05.339Z,16.05
2023-01-30T10:24:36.684Z,16.07
2023-01-30T10:27:04.930Z,16.08
2023-01-30T10:29:32.825Z,16.07
2023-01-30T10:32:01.149Z,16.07
2023-01-30T10:34:30.881Z,16.08
2023-01-30T10:36:59.814Z,16.09
2023-01-30T10:39:29.175Z,16.04
2023-01-30T10:41:59.088Z,16.08
2023-01-30T10:44:27.103Z,16.08
2023-01-30T10:47:09.629Z,16.09
2023-01-30T10:49:40.249Z,16.07
2023-01-30T10:52:12.073Z,16.03
2023-01-30T10:54:40.604Z,15.89
2023-01-30T10:57:13.243Z,15.86
2023-01-30T10:59:43.336Z,15.92
2023-01-30T11:02:15.049Z,15.91
2023-01-30T11:04:45.152Z,15.84
2023-01-30T11:07:13.272Z,15.73
2023-01-30T11:09:41.584Z,15.64
2023-01-30T11:12:09.226Z,15.57
2023-01-30T11:14:53.100Z,15.50
2023-01-30T11:17:20.718Z,15.45
2023-01-30T11:19:56.018Z,15.40
2023-01-30T11:22:25.521Z,15.31
2023-01-30T11:24:53.203Z,15.31
2023-01-30T11:27:24.326Z,15.25
2023-01-30T11:29:52.491Z,15.22
2023-01-30T11:32:21.069Z,15.19
2023-01-30T11:35:02.223Z,15.16
2023-01-30T11:37:32.085Z,15.12
2023-01-30T11:39:59.874Z,15.08
2023-01-30T11:42:30.911Z,15.06
2023-01-30T11:45:14.860Z,15.07
2023-01-30T11:47:54.255Z,15.02
2023-01-30T11:50:26.818Z,15.00
2023-01-30T11:52:59.854Z,14.97
2023-01-30T11:55:27.658Z,14.98
2023-01-30T11:57:58.804Z,14.97
2023-01-30T12:00:27.624Z,14.99
2023-01-30T12:02:55.222Z,14.98
2023-01-30T12:05:23.715Z,14.98
2023-01-30T12:07:51.642Z,14.97
2023-01-30T12:10:26.609Z,14.98
2023-01-30T12:12:54.483Z,15.00
2023-01-30T12:15:23.158Z,14.99
2023-01-30T12:17:51.993Z,14.98
2023-01-30T12:20:22.194Z,14.94
2023-01-30T12:22:50.858Z,14.95
2023-01-30T12:25:20.312Z,14.95
2023-01-30T12:30:35.052Z,14.99
2023-01-30T12:33:03.166Z,15.00
2023-01-30T12:35:33.010Z,15.00
2023-01-30T12:38:02.144Z,15.00
2023-01-30T12:40:33.276Z,15.00
2023-01-30T12:43:15.892Z,15.00
2023-01-30T12:45:46.148Z,15.01
2023-01-30T12:48:26.069Z,14.98
2023-01-30T12:50:57.108Z,14.98
2023-01-30T12:53:31.001Z,14.97
2023-01-30T12:56:16.465Z,14.94
2023-01-30T12:58:46.036Z,14.94
2023-01-30T13:01:22.342Z,14.93
2023-01-30T13:03:51.763Z,14.91
2023-01-30T13:06:24.592Z,14.89
2023-01-30T13:08:55.309Z,14.88
2023-01-30T13:11:29.180Z,14.89
2023-01-30T13:13:58.231Z,14.86
2023-01-30T13:16:28.617Z,14.80
2023-01-30T13:18:56.575Z,14.72
2023-01-30T13:21:24.683Z,14.72
2023-01-30T13:24:01.862Z,14.71
2023-01-30T13:26:31.493Z,14.71
2023-01-30T13:28:59.861Z,14.71
2023-01-30T13:31:29.287Z,14.71
2023-01-30T13:33:57.898Z,14.71
2023-01-30T13:36:26.435Z,14.73
2023-01-30T13:38:58.189Z,14.72
2023-01-30T13:41:25.949Z,14.70
2023-01-30T13:43:54.169Z,14.70
2023-01-30T13:46:24.172Z,14.69
2023-01-30T13:48:56.472Z,14.67
2023-01-30T13:51:27.778Z,14.66
2023-01-30T13:53:56.350Z,14.67
2023-01-30T13:56:40.801Z,14.68
2023-01-30T13:59:12.008Z,14.69
2023-01-30T14:01:58.749Z,14.67
2023-01-30T14:04:47.492Z,14.68
2023-01-30T14:07:16.664Z,14.68
2023-01-30T14:09:45.236Z,14.69
2023-01-30T14:12:16.946Z,14.67
2023-01-30T14:14:44.550Z,14.66
2023-01-30T14:18:23.881Z,14.66
2023-01-30T14:20:29.570Z,14.68
2023-01-30T14:22:57.266Z,14.71
2023-01-30T14:25:46.082Z,14.70
2023-01-30T14:28:32.853Z,14.70
2023-01-30T14:31:00.656Z,14.67
2023-01-30T14:33:34.874Z,14.57
2023-01-30T14:36:21.180Z,14.46
2023-01-30T14:38:50.385Z,14.41
2023-01-30T14:41:18.268Z,14.38
2023-01-30T14:43:52.648Z,14.36
2023-01-30T14:46:39.442Z,14.36
2023-01-30T14:49:14.641Z,14.34
2023-01-30T14:51:43.570Z,14.33
2023-01-30T14:54:20.676Z,14.31
2023-01-30T14:56:50.495Z,14.28
2023-01-30T14:59:22.909Z,14.28
2023-01-30T15:01:54.455Z,14.26
2023-01-30T15:04:22.669Z,14.20
2023-01-30T15:06:50.272Z,14.22
2023-01-30T15:09:19.691Z,14.21
2023-01-30T15:11:48.617Z,14.20
2023-01-30T15:14:16.786Z,14.19
2023-01-30T15:16:48.583Z,14.19
2023-01-30T15:19:20.098Z,14.18
2023-01-30T15:21:53.395Z,14.19
2023-01-30T15:24:51.252Z,14.19
2023-01-30T15:27:20.751Z,14.20
2023-01-30T15:30:01.464Z,14.21
2023-01-30T15:32:29.594Z,14.22
2023-01-30T15:34:57.979Z,14.24
2023-01-30T15:37:32.558Z,14.25
2023-01-30T15:40:23.262Z,14.26
2023-01-30T15:42:54.040Z,14.26
2023-01-30T15:45:24.973Z,14.23
2023-01-30T15:47:59.755Z,14.22
2023-01-30T15:50:27.367Z,14.22
2023-01-30T15:52:56.569Z,14.23
2023-01-30T15:55:24.787Z,14.24
2023-01-30T15:57:54.129Z,14.19
2023-01-30T16:00:25.024Z,14.23
2023-01-30T16:02:52.654Z,14.22
2023-01-30T16:05:20.648Z,14.23
2023-01-30T16:07:48.757Z,14.18
2023-01-30T16:10:17.137Z,14.21
2023-01-30T16:12:51.159Z,14.21
2023-01-30T16:15:21.112Z,14.21
2023-01-30T16:17:51.896Z,14.22
2023-01-30T16:20:19.479Z,14.23
2023-01-30T16:22:48.071Z,14.20
2023-01-30T16:25:17.935Z,14.17
2023-01-30T16:27:48.359Z,14.16
2023-01-30T16:30:20.611Z,14.14
2023-01-30T16:32:50.111Z,14.14
2023-01-30T16:35:19.295Z,14.14
2023-01-30T16:37:47.039Z,14.13
2023-01-30T16:40:15.453Z,14.13
2023-01-30T16:42:43.099Z,14.14
2023-01-30T16:45:28.318Z,14.13
2023-01-30T16:47:57.432Z,14.09
2023-01-30T16:50:25.099Z,14.09
2023-01-30T16:52:53.345Z,14.11
2023-01-30T16:55:21.595Z,14.11
2023-01-30T16:57:51.785Z,14.11
2023-01-30T17:00:21.586Z,14.09
2023-01-30T17:02:50.895Z,14.12
2023-01-30T17:05:20.924Z,14.11
2023-01-30T17:07:48.638Z,14.09
2023-01-30T17:10:36.662Z,14.08
2023-01-30T17:13:04.551Z,14.08
2023-01-30T17:15:33.403Z,14.07
2023-01-30T17:18:17.120Z,14.04
2023-01-30T17:20:51.111Z,14.27
2023-01-30T17:23:19.501Z,14.42
2023-01-30T17:25:47.651Z,14.55
2023-01-30T17:28:17.612Z,14.67
2023-01-30T17:30:45.282Z,14.74
2023-01-30T17:33:12.941Z,14.82
2023-01-30T17:35:40.597Z,14.89
2023-01-30T17:38:09.711Z,14.93
2023-01-30T17:40:37.875Z,14.97
2023-01-30T17:43:05.863Z,15.00
2023-01-30T17:45:33.708Z,15.04
2023-01-30T17:48:01.823Z,15.09
2023-01-30T17:50:29.980Z,15.11
2023-01-30T17:52:57.615Z,15.14
2023-01-30T17:55:26.749Z,15.16
2023-01-30T17:57:55.076Z,15.18
2023-01-30T18:00:36.127Z,15.20
2023-01-30T18:03:03.941Z,15.23
2023-01-30T18:05:31.721Z,15.24
2023-01-30T18:07:59.917Z,15.26
2023-01-30T18:10:29.895Z,15.27
2023-01-30T18:12:57.704Z,15.28
2023-01-30T18:15:26.038Z,15.31
2023-01-30T18:17:56.402Z,15.31
2023-01-30T18:20:24.153Z,15.32
2023-01-30T18:22:51.908Z,15.34
2023-01-30T18:25:20.534Z,15.35
2023-01-30T18:27:50.345Z,15.37
2023-01-30T18:30:18.511Z,15.37
2023-01-30T18:32:52.912Z,15.39
2023-01-30T18:35:21.572Z,15.41
2023-01-30T18:37:50.031Z,15.42
2023-01-30T18:40:18.622Z,15.43
2023-01-30T18:42:46.741Z,15.43
2023-01-30T18:45:16.404Z,15.45
2023-01-30T18:47:44.004Z,15.46
2023-01-30T18:50:11.997Z,15.46
2023-01-30T18:52:40.009Z,15.47
2023-01-30T18:55:07.942Z,15.48
2023-01-30T18:57:35.602Z,15.49
2023-01-30T19:00:03.410Z,15.48
2023-01-30T19:02:32.681Z,15.49
2023-01-30T19:05:00.598Z,15.50
2023-01-30T19:07:28.261Z,15.51
2023-01-30T19:09:56.384Z,15.52
2023-01-30T19:12:42.386Z,15.53
2023-01-30T19:15:10.407Z,15.54
2023-01-30T19:17:39.415Z,15.55
2023-01-30T19:20:10.801Z,15.55
2023-01-30T19:22:39.385Z,15.56
2023-01-30T19:25:07.760Z,15.56
2023-01-30T19:27:36.947Z,15.56
2023-01-30T19:30:04.884Z,15.57
2023-01-30T19:32:32.548Z,15.56
2023-01-30T19:35:01.988Z,15.57
2023-01-30T19:37:29.540Z,15.57
2023-01-30T19:39:57.212Z,15.57
2023-01-30T19:42:24.847Z,15.57
2023-01-30T19:44:53.395Z,15.57
2023-01-30T19:47:22.033Z,15.58
2023-01-30T19:49:49.849Z,15.59
2023-01-30T19:52:18.847Z,15.60
2023-01-30T19:54:47.652Z,15.58
2023-01-30T19:57:15.220Z,15.60
2023-01-30T19:59:43.397Z,15.60
2023-01-30T20:02:11.004Z,15.61
2023-01-30T20:04:40.655Z,15.61
2023-01-30T20:07:08.774Z,15.62
2023-01-30T20:09:37.903Z,15.62
2023-01-30T20:12:06.821Z,15.62
2023-01-30T20:14:34.442Z,15.62
2023-01-30T20:17:02.292Z,15.63
2023-01-30T20:19:29.909Z,15.63
2023-01-30T20:21:57.557Z,15.63
2023-01-30T20:24:25.111Z,15.62
2023-01-30T20:26:54.226Z,15.62
2023-01-30T20:29:21.903Z,15.63
2023-01-30T20:31:49.535Z,15.64
2023-01-30T20:34:18.067Z,15.64
2023-01-30T20:36:45.750Z,15.64
2023-01-30T20:39:14.115Z,15.65
2023-01-30T20:41:41.740Z,15.66
2023-01-30T20:44:11.724Z,15.65
2023-01-30T20:46:41.263Z,15.66
2023-01-30T20:49:09.329Z,15.65
2023-01-30T20:51:37.190Z,15.67
2023-01-30T20:54:05.500Z,15.67
2023-01-30T20:56:33.766Z,15.68
2023-01-30T20:59:02.423Z,15.68
2023-01-30T21:01:31.686Z,15.67
2023-01-30T21:03:59.401Z,15.68
2023-01-30T21:06:41.116Z,15.67
2023-01-30T21:09:13.069Z,15.68
2023-01-30T21:11:40.663Z,15.67
2023-01-30T21:14:08.352Z,15.68
2023-01-30T21:16:37.792Z,15.68
2023-01-30T21:19:06.802Z,15.68
2023-01-30T21:21:35.845Z,15.68
2023-01-30T21:24:04.466Z,15.70
2023-01-30T21:26:33.225Z,15.70
2023-01-30T21:29:01.226Z,15.69
2023-01-30T21:31:29.428Z,15.70
2023-01-30T21:33:58.606Z,15.70
2023-01-30T21:36:26.340Z,15.69
2023-01-30T21:39:11.583Z,15.69
2023-01-30T21:41:59.350Z,15.70
2023-01-30T21:44:27.578Z,15.69
2023-01-30T21:46:55.209Z,15.69
2023-01-30T21:49:25.758Z,15.69
2023-01-30T21:51:53.383Z,15.69
2023-01-30T21:54:21.068Z,15.70
2023-01-30T21:56:48.716Z,15.69
2023-01-30T21:59:16.290Z,15.69
2023-01-30T22:01:43.937Z,15.69
2023-01-30T22:04:13.821Z,15.70
2023-01-30T22:06:42.773Z,15.70
2023-01-30T22:09:10.356Z,15.70
2023-01-30T22:11:38.798Z,15.70
2023-01-30T22:14:06.534Z,15.70
2023-01-30T22:16:34.433Z,15.70
2023-01-30T22:19:02.423Z,15.71
2023-01-30T22:21:31.570Z,15.70
2023-01-30T22:24:00.711Z,15.71
2023-01-30T22:26:28.367Z,15.71
2023-01-30T22:28:56.605Z,15.71
2023-01-30T22:31:24.397Z,15.70
2023-01-30T22:33:53.536Z,15.70
2023-01-30T22:36:21.442Z,15.71
2023-01-30T22:38:49.691Z,15.72
2023-01-30T22:41:18.910Z,15.72
2023-01-30T22:43:46.785Z,15.72
2023-01-30T22:46:14.526Z,15.71
2023-01-30T22:48:42.323Z,15.73
2023-01-30T22:51:11.391Z,15.73
2023-01-30T22:53:39.446Z,15.72
2023-01-30T22:56:07.748Z,15.72
2023-01-30T22:58:37.076Z,15.72
2023-01-30T23:01:05.618Z,15.72
2023-01-30T23:03:33.449Z,15.72
2023-01-30T23:06:01.307Z,15.72
2023-01-30T23:08:30.016Z,15.72
2023-01-30T23:10:57.599Z,15.72
2023-01-30T23:13:25.286Z,15.72
2023-01-30T23:15:54.356Z,15.71
2023-01-30T23:18:39.305Z,15.70
2023-01-30T23:21:10.982Z,15.72
2023-01-30T23:23:38.834Z,15.71
2023-01-30T23:26:06.794Z,15.71
2023-01-30T23:28:34.437Z,15.71
2023-01-30T23:45:58.019Z,15.70
2023-01-30T23:48:25.678Z,15.71
2023-01-30T23:50:53.328Z,15.70
2023-01-30T23:53:21.009Z,15.70
2023-01-30T23:55:52.164Z,15.70
2023-01-30T23:58:27.121Z,15.70
